sensor_id;sensor_type;location;lat;lon;timestamp;P1;durP1;ratioP1;P2;durP2;ratioP2
5133;SDS011;2585;48.696;10.066;2022-07-29T00:02:24;11.67;;;6.97;;
5133;SDS011;2585;48.696;10.066;2022-07-29T00:04:51;16.30;;;7.00;;
5133;SDS011;2585;48.696;10.066;2022-07-29T00:07:18;9.27;;;6.87;;
5133;SDS011;2585;48.696;10.066;2022-07-29T00:09:45;11.00;;;7.20;;
5133;SDS011;2585;48.696;10.066;2022-07-29T00:12:18;14.90;;;7.83;;
5133;SDS011;2585;48.696;10.066;2022-07-29T00:14:52;8.83;;;6.80;;
5133;SDS011;2585;48.696;10.066;2022-07-29T00:17:20;8.00;;;6.60;;
5133;SDS011;2585;48.696;10.066;2022-07-29T00:19:46;9.10;;;7.00;;
5133;SDS011;2585;48.696;10.066;2022-07-29T00:22:14;9.70;;;7.20;;
5133;SDS011;2585;48.696;10.066;2022-07-29T00:24:41;7.50;;;6.77;;
5133;SDS011;2585;48.696;10.066;2022-07-29T00:27:08;7.77;;;6.97;;
5133;SDS011;2585;48.696;10.066;2022-07-29T00:29:35;7.70;;;6.40;;
5133;SDS011;2585;48.696;10.066;2022-07-29T00:32:02;12.50;;;7.30;;
5133;SDS011;2585;48.696;10.066;2022-07-29T00:34:29;8.00;;;6.33;;
5133;SDS011;2585;48.696;10.066;2022-07-29T00:37:15;6.83;;;5.60;;
5133;SDS011;2585;48.696;10.066;2022-07-29T00:39:42;6.50;;;5.40;;
5133;SDS011;2585;48.696;10.066;2022-07-29T00:42:09;6.10;;;4.73;;
5133;SDS011;2585;48.696;10.066;2022-07-29T00:44:39;7.17;;;4.47;;
5133;SDS011;2585;48.696;10.066;2022-07-29T00:47:07;6.10;;;5.17;;
5133;SDS011;2585;48.696;10.066;2022-07-29T00:49:35;7.23;;;5.40;;
5133;SDS011;2585;48.696;10.066;2022-07-29T00:52:04;5.83;;;4.73;;
5133;SDS011;2585;48.696;10.066;2022-07-29T00:54:32;7.13;;;5.00;;
5133;SDS011;2585;48.696;10.066;2022-07-29T00:57:00;8.03;;;4.67;;
5133;SDS011;2585;48.696;10.066;2022-07-29T00:59:27;6.70;;;5.07;;
5133;SDS011;2585;48.696;10.066;2022-07-29T01:02:00;5.03;;;4.50;;
5133;SDS011;2585;48.696;10.066;2022-07-29T01:04:30;6.63;;;5.40;;
5133;SDS011;2585;48.696;10.066;2022-07-29T01:06:58;6.07;;;5.10;;
5133;SDS011;2585;48.696;10.066;2022-07-29T01:09:27;6.53;;;5.53;;
5133;SDS011;2585;48.696;10.066;2022-07-29T01:12:16;5.50;;;4.87;;
5133;SDS011;2585;48.696;10.066;2022-07-29T01:14:45;6.17;;;5.60;;
5133;SDS011;2585;48.696;10.066;2022-07-29T01:17:28;7.03;;;5.17;;
5133;SDS011;2585;48.696;10.066;2022-07-29T01:19:58;9.90;;;4.80;;
5133;SDS011;2585;48.696;10.066;2022-07-29T01:25:37;5.23;;;4.67;;
5133;SDS011;2585;48.696;10.066;2022-07-29T01:30:58;6.70;;;5.10;;
5133;SDS011;2585;48.696;10.066;2022-07-29T01:33:31;4.50;;;4.07;;
5133;SDS011;2585;48.696;10.066;2022-07-29T01:36:17;5.03;;;4.53;;
5133;SDS011;2585;48.696;10.066;2022-07-29T01:38:54;5.70;;;5.10;;
5133;SDS011;2585;48.696;10.066;2022-07-29T01:41:25;5.83;;;5.17;;
5133;SDS011;2585;48.696;10.066;2022-07-29T01:43:56;5.20;;;4.70;;
5133;SDS011;2585;48.696;10.066;2022-07-29T01:46:47;6.53;;;5.10;;
5133;SDS011;2585;48.696;10.066;2022-07-29T01:49:20;5.40;;;4.90;;
5133;SDS011;2585;48.696;10.066;2022-07-29T01:51:53;6.40;;;4.97;;
5133;SDS011;2585;48.696;10.066;2022-07-29T01:54:43;5.80;;;4.83;;
5133;SDS011;2585;48.696;10.066;2022-07-29T01:57:15;5.37;;;4.87;;
5133;SDS011;2585;48.696;10.066;2022-07-29T01:59:46;6.50;;;4.20;;
5133;SDS011;2585;48.696;10.066;2022-07-29T02:02:15;4.80;;;4.30;;
5133;SDS011;2585;48.696;10.066;2022-07-29T02:04:44;4.80;;;4.40;;
5133;SDS011;2585;48.696;10.066;2022-07-29T02:07:15;5.13;;;4.30;;
5133;SDS011;2585;48.696;10.066;2022-07-29T02:09:47;4.70;;;4.20;;
5133;SDS011;2585;48.696;10.066;2022-07-29T02:12:16;5.33;;;4.07;;
5133;SDS011;2585;48.696;10.066;2022-07-29T02:14:46;5.87;;;4.50;;
5133;SDS011;2585;48.696;10.066;2022-07-29T02:17:19;5.80;;;4.63;;
5133;SDS011;2585;48.696;10.066;2022-07-29T02:19:50;4.60;;;4.00;;
5133;SDS011;2585;48.696;10.066;2022-07-29T02:22:21;4.30;;;3.90;;
5133;SDS011;2585;48.696;10.066;2022-07-29T02:24:50;4.83;;;4.10;;
5133;SDS011;2585;48.696;10.066;2022-07-29T02:27:19;5.90;;;4.57;;
5133;SDS011;2585;48.696;10.066;2022-07-29T02:29:47;4.30;;;3.90;;
5133;SDS011;2585;48.696;10.066;2022-07-29T02:32:15;4.23;;;3.83;;
5133;SDS011;2585;48.696;10.066;2022-07-29T02:34:43;5.57;;;4.80;;
5133;SDS011;2585;48.696;10.066;2022-07-29T02:37:14;5.40;;;4.50;;
5133;SDS011;2585;48.696;10.066;2022-07-29T02:39:43;8.10;;;4.83;;
5133;SDS011;2585;48.696;10.066;2022-07-29T02:42:15;4.57;;;4.10;;
5133;SDS011;2585;48.696;10.066;2022-07-29T02:44:43;6.10;;;4.00;;
5133;SDS011;2585;48.696;10.066;2022-07-29T02:47:18;4.57;;;4.00;;
5133;SDS011;2585;48.696;10.066;2022-07-29T02:52:23;8.30;;;4.40;;
5133;SDS011;2585;48.696;10.066;2022-07-29T02:54:55;4.73;;;4.23;;
5133;SDS011;2585;48.696;10.066;2022-07-29T03:00:20;4.37;;;3.97;;
5133;SDS011;2585;48.696;10.066;2022-07-29T03:02:50;5.20;;;4.07;;
5133;SDS011;2585;48.696;10.066;2022-07-29T03:05:20;4.47;;;4.00;;
5133;SDS011;2585;48.696;10.066;2022-07-29T03:07:52;4.90;;;3.87;;
5133;SDS011;2585;48.696;10.066;2022-07-29T03:10:21;5.87;;;4.70;;
5133;SDS011;2585;48.696;10.066;2022-07-29T03:12:51;5.50;;;4.73;;
5133;SDS011;2585;48.696;10.066;2022-07-29T03:15:18;5.43;;;4.70;;
5133;SDS011;2585;48.696;10.066;2022-07-29T03:17:49;7.60;;;4.90;;
5133;SDS011;2585;48.696;10.066;2022-07-29T03:20:17;4.27;;;3.90;;
5133;SDS011;2585;48.696;10.066;2022-07-29T03:22:44;4.77;;;4.30;;
5133;SDS011;2585;48.696;10.066;2022-07-29T03:25:14;4.80;;;4.30;;
5133;SDS011;2585;48.696;10.066;2022-07-29T03:27:43;4.23;;;3.83;;
5133;SDS011;2585;48.696;10.066;2022-07-29T03:30:10;4.10;;;3.70;;
5133;SDS011;2585;48.696;10.066;2022-07-29T03:32:43;4.23;;;3.83;;
5133;SDS011;2585;48.696;10.066;2022-07-29T03:35:10;7.20;;;4.63;;
5133;SDS011;2585;48.696;10.066;2022-07-29T03:37:37;5.30;;;4.20;;
5133;SDS011;2585;48.696;10.066;2022-07-29T03:40:05;4.40;;;3.73;;
5133;SDS011;2585;48.696;10.066;2022-07-29T03:42:35;4.70;;;4.30;;
5133;SDS011;2585;48.696;10.066;2022-07-29T03:45:07;4.20;;;3.80;;
5133;SDS011;2585;48.696;10.066;2022-07-29T03:47:38;5.73;;;4.27;;
5133;SDS011;2585;48.696;10.066;2022-07-29T03:50:17;5.47;;;4.97;;
5133;SDS011;2585;48.696;10.066;2022-07-29T03:52:47;4.93;;;4.20;;
5133;SDS011;2585;48.696;10.066;2022-07-29T03:55:14;7.00;;;4.90;;
5133;SDS011;2585;48.696;10.066;2022-07-29T03:57:43;5.87;;;5.30;;
5133;SDS011;2585;48.696;10.066;2022-07-29T04:00:11;6.37;;;4.23;;
5133;SDS011;2585;48.696;10.066;2022-07-29T04:02:39;6.97;;;4.53;;
5133;SDS011;2585;48.696;10.066;2022-07-29T04:05:11;4.80;;;4.03;;
5133;SDS011;2585;48.696;10.066;2022-07-29T04:07:39;16.90;;;4.87;;
5133;SDS011;2585;48.696;10.066;2022-07-29T04:10:13;5.90;;;4.17;;
5133;SDS011;2585;48.696;10.066;2022-07-29T04:12:42;5.63;;;4.23;;
5133;SDS011;2585;48.696;10.066;2022-07-29T04:15:09;4.93;;;4.43;;
5133;SDS011;2585;48.696;10.066;2022-07-29T04:17:36;7.73;;;4.63;;
5133;SDS011;2585;48.696;10.066;2022-07-29T04:20:04;6.03;;;4.50;;
5133;SDS011;2585;48.696;10.066;2022-07-29T04:22:31;5.47;;;4.30;;
5133;SDS011;2585;48.696;10.066;2022-07-29T04:24:58;5.90;;;3.67;;
5133;SDS011;2585;48.696;10.066;2022-07-29T04:27:29;6.73;;;4.30;;
5133;SDS011;2585;48.696;10.066;2022-07-29T04:29:56;7.57;;;4.20;;
5133;SDS011;2585;48.696;10.066;2022-07-29T04:32:24;5.90;;;3.93;;
5133;SDS011;2585;48.696;10.066;2022-07-29T04:34:51;6.37;;;3.90;;
5133;SDS011;2585;48.696;10.066;2022-07-29T04:37:18;4.00;;;3.37;;
5133;SDS011;2585;48.696;10.066;2022-07-29T04:39:45;4.30;;;3.90;;
5133;SDS011;2585;48.696;10.066;2022-07-29T04:42:12;8.03;;;5.00;;
5133;SDS011;2585;48.696;10.066;2022-07-29T04:44:39;8.13;;;4.60;;
5133;SDS011;2585;48.696;10.066;2022-07-29T04:47:08;5.80;;;5.20;;
5133;SDS011;2585;48.696;10.066;2022-07-29T04:49:37;6.13;;;4.73;;
5133;SDS011;2585;48.696;10.066;2022-07-29T04:52:05;10.50;;;6.17;;
5133;SDS011;2585;48.696;10.066;2022-07-29T04:54:32;10.80;;;6.67;;
5133;SDS011;2585;48.696;10.066;2022-07-29T04:56:59;11.03;;;7.50;;
5133;SDS011;2585;48.696;10.066;2022-07-29T04:59:26;6.43;;;5.73;;
5133;SDS011;2585;48.696;10.066;2022-07-29T05:01:53;7.93;;;5.00;;
5133;SDS011;2585;48.696;10.066;2022-07-29T05:04:20;6.50;;;5.80;;
5133;SDS011;2585;48.696;10.066;2022-07-29T05:06:47;8.23;;;6.30;;
5133;SDS011;2585;48.696;10.066;2022-07-29T05:09:14;9.50;;;7.83;;
5133;SDS011;2585;48.696;10.066;2022-07-29T05:11:41;9.10;;;7.83;;
5133;SDS011;2585;48.696;10.066;2022-07-29T05:14:08;10.50;;;8.07;;
5133;SDS011;2585;48.696;10.066;2022-07-29T05:16:34;9.63;;;7.37;;
5133;SDS011;2585;48.696;10.066;2022-07-29T05:19:01;9.80;;;7.40;;
5133;SDS011;2585;48.696;10.066;2022-07-29T05:21:28;10.80;;;7.60;;
5133;SDS011;2585;48.696;10.066;2022-07-29T05:23:55;8.43;;;7.40;;
5133;SDS011;2585;48.696;10.066;2022-07-29T05:26:22;9.43;;;7.40;;
5133;SDS011;2585;48.696;10.066;2022-07-29T05:28:49;8.13;;;7.20;;
5133;SDS011;2585;48.696;10.066;2022-07-29T05:31:16;8.40;;;7.30;;
5133;SDS011;2585;48.696;10.066;2022-07-29T05:33:43;13.40;;;7.07;;
5133;SDS011;2585;48.696;10.066;2022-07-29T05:36:10;8.50;;;7.60;;
5133;SDS011;2585;48.696;10.066;2022-07-29T05:38:37;12.90;;;7.90;;
5133;SDS011;2585;48.696;10.066;2022-07-29T05:41:04;11.00;;;8.20;;
5133;SDS011;2585;48.696;10.066;2022-07-29T05:43:32;9.57;;;7.67;;
5133;SDS011;2585;48.696;10.066;2022-07-29T05:45:59;11.70;;;8.37;;
5133;SDS011;2585;48.696;10.066;2022-07-29T05:48:26;7.80;;;6.80;;
5133;SDS011;2585;48.696;10.066;2022-07-29T05:50:53;10.10;;;7.60;;
5133;SDS011;2585;48.696;10.066;2022-07-29T05:53:21;10.77;;;7.30;;
5133;SDS011;2585;48.696;10.066;2022-07-29T05:55:48;8.00;;;6.80;;
5133;SDS011;2585;48.696;10.066;2022-07-29T05:58:15;9.27;;;6.90;;
5133;SDS011;2585;48.696;10.066;2022-07-29T06:00:42;7.87;;;6.10;;
5133;SDS011;2585;48.696;10.066;2022-07-29T06:03:09;8.97;;;6.90;;
5133;SDS011;2585;48.696;10.066;2022-07-29T06:05:36;8.83;;;6.93;;
5133;SDS011;2585;48.696;10.066;2022-07-29T06:08:03;12.83;;;7.00;;
5133;SDS011;2585;48.696;10.066;2022-07-29T06:10:37;12.87;;;7.57;;
5133;SDS011;2585;48.696;10.066;2022-07-29T06:13:04;10.50;;;8.57;;
5133;SDS011;2585;48.696;10.066;2022-07-29T06:15:30;10.20;;;8.07;;
5133;SDS011;2585;48.696;10.066;2022-07-29T06:17:57;9.70;;;8.67;;
5133;SDS011;2585;48.696;10.066;2022-07-29T06:20:27;9.57;;;8.57;;
5133;SDS011;2585;48.696;10.066;2022-07-29T06:22:56;18.67;;;10.00;;
5133;SDS011;2585;48.696;10.066;2022-07-29T06:25:23;10.97;;;9.60;;
5133;SDS011;2585;48.696;10.066;2022-07-29T06:27:50;13.10;;;11.47;;
5133;SDS011;2585;48.696;10.066;2022-07-29T06:30:18;16.53;;;11.17;;
5133;SDS011;2585;48.696;10.066;2022-07-29T06:32:45;11.23;;;10.10;;
5133;SDS011;2585;48.696;10.066;2022-07-29T06:35:12;15.00;;;12.03;;
5133;SDS011;2585;48.696;10.066;2022-07-29T06:37:59;16.20;;;12.83;;
5133;SDS011;2585;48.696;10.066;2022-07-29T06:40:25;15.40;;;12.80;;
5133;SDS011;2585;48.696;10.066;2022-07-29T06:43:11;17.20;;;13.43;;
5133;SDS011;2585;48.696;10.066;2022-07-29T06:45:38;20.47;;;14.27;;
5133;SDS011;2585;48.696;10.066;2022-07-29T06:48:07;19.37;;;13.63;;
5133;SDS011;2585;48.696;10.066;2022-07-29T06:50:35;20.20;;;14.90;;
5133;SDS011;2585;48.696;10.066;2022-07-29T06:53:02;19.40;;;15.37;;
5133;SDS011;2585;48.696;10.066;2022-07-29T06:55:29;24.23;;;15.60;;
5133;SDS011;2585;48.696;10.066;2022-07-29T06:57:56;21.43;;;15.80;;
5133;SDS011;2585;48.696;10.066;2022-07-29T07:00:22;20.63;;;13.77;;
5133;SDS011;2585;48.696;10.066;2022-07-29T07:02:49;20.43;;;14.60;;
5133;SDS011;2585;48.696;10.066;2022-07-29T07:05:16;24.77;;;14.57;;
5133;SDS011;2585;48.696;10.066;2022-07-29T07:07:43;20.90;;;15.53;;
5133;SDS011;2585;48.696;10.066;2022-07-29T07:10:10;16.43;;;13.07;;
5133;SDS011;2585;48.696;10.066;2022-07-29T07:12:37;20.07;;;13.90;;
5133;SDS011;2585;48.696;10.066;2022-07-29T07:15:04;24.03;;;17.03;;
5133;SDS011;2585;48.696;10.066;2022-07-29T07:17:31;19.40;;;14.87;;
5133;SDS011;2585;48.696;10.066;2022-07-29T07:19:58;20.53;;;16.20;;
5133;SDS011;2585;48.696;10.066;2022-07-29T07:22:25;22.00;;;16.73;;
5133;SDS011;2585;48.696;10.066;2022-07-29T07:24:53;19.00;;;15.07;;
5133;SDS011;2585;48.696;10.066;2022-07-29T07:27:20;17.87;;;14.27;;
5133;SDS011;2585;48.696;10.066;2022-07-29T07:29:46;19.87;;;14.67;;
5133;SDS011;2585;48.696;10.066;2022-07-29T07:32:13;16.23;;;13.63;;
5133;SDS011;2585;48.696;10.066;2022-07-29T07:34:42;19.27;;;13.50;;
5133;SDS011;2585;48.696;10.066;2022-07-29T07:37:09;15.13;;;12.00;;
5133;SDS011;2585;48.696;10.066;2022-07-29T07:39:36;15.27;;;12.77;;
5133;SDS011;2585;48.696;10.066;2022-07-29T07:42:03;15.63;;;13.63;;
5133;SDS011;2585;48.696;10.066;2022-07-29T07:44:30;15.03;;;12.40;;
5133;SDS011;2585;48.696;10.066;2022-07-29T07:46:57;14.90;;;12.83;;
5133;SDS011;2585;48.696;10.066;2022-07-29T07:49:37;14.63;;;12.13;;
5133;SDS011;2585;48.696;10.066;2022-07-29T07:52:06;12.10;;;10.80;;
5133;SDS011;2585;48.696;10.066;2022-07-29T07:54:33;16.60;;;11.17;;
5133;SDS011;2585;48.696;10.066;2022-07-29T07:57:00;15.20;;;11.80;;
5133;SDS011;2585;48.696;10.066;2022-07-29T07:59:27;14.10;;;12.30;;
5133;SDS011;2585;48.696;10.066;2022-07-29T08:01:54;18.53;;;11.27;;
5133;SDS011;2585;48.696;10.066;2022-07-29T08:04:22;13.60;;;12.30;;
5133;SDS011;2585;48.696;10.066;2022-07-29T08:06:54;12.40;;;10.97;;
5133;SDS011;2585;48.696;10.066;2022-07-29T08:09:23;15.30;;;10.80;;
5133;SDS011;2585;48.696;10.066;2022-07-29T08:11:56;12.70;;;10.33;;
5133;SDS011;2585;48.696;10.066;2022-07-29T08:14:24;11.23;;;10.07;;
5133;SDS011;2585;48.696;10.066;2022-07-29T08:16:51;11.37;;;9.63;;
5133;SDS011;2585;48.696;10.066;2022-07-29T08:19:18;9.40;;;8.50;;
5133;SDS011;2585;48.696;10.066;2022-07-29T08:21:45;11.60;;;9.50;;
5133;SDS011;2585;48.696;10.066;2022-07-29T08:24:12;9.20;;;8.10;;
5133;SDS011;2585;48.696;10.066;2022-07-29T08:26:57;9.60;;;8.60;;
5133;SDS011;2585;48.696;10.066;2022-07-29T08:29:24;8.80;;;7.90;;
5133;SDS011;2585;48.696;10.066;2022-07-29T08:31:51;8.73;;;7.33;;
5133;SDS011;2585;48.696;10.066;2022-07-29T08:34:19;10.27;;;7.73;;
5133;SDS011;2585;48.696;10.066;2022-07-29T08:36:53;11.77;;;8.47;;
5133;SDS011;2585;48.696;10.066;2022-07-29T08:39:20;9.57;;;8.67;;
5133;SDS011;2585;48.696;10.066;2022-07-29T08:41:47;8.60;;;7.57;;
5133;SDS011;2585;48.696;10.066;2022-07-29T08:44:24;11.87;;;7.30;;
5133;SDS011;2585;48.696;10.066;2022-07-29T08:46:56;8.73;;;7.87;;
5133;SDS011;2585;48.696;10.066;2022-07-29T08:49:23;8.20;;;7.37;;
5133;SDS011;2585;48.696;10.066;2022-07-29T08:51:50;9.20;;;7.23;;
5133;SDS011;2585;48.696;10.066;2022-07-29T08:54:20;8.33;;;6.03;;
5133;SDS011;2585;48.696;10.066;2022-07-29T08:56:49;9.07;;;7.30;;
5133;SDS011;2585;48.696;10.066;2022-07-29T08:59:20;11.50;;;7.27;;
5133;SDS011;2585;48.696;10.066;2022-07-29T09:01:51;8.80;;;6.50;;
5133;SDS011;2585;48.696;10.066;2022-07-29T09:04:20;7.63;;;6.53;;
5133;SDS011;2585;48.696;10.066;2022-07-29T09:06:51;7.63;;;6.30;;
5133;SDS011;2585;48.696;10.066;2022-07-29T09:09:19;7.50;;;6.33;;
5133;SDS011;2585;48.696;10.066;2022-07-29T09:11:46;8.37;;;6.47;;
5133;SDS011;2585;48.696;10.066;2022-07-29T09:14:13;9.70;;;6.77;;
5133;SDS011;2585;48.696;10.066;2022-07-29T09:16:43;7.30;;;6.60;;
5133;SDS011;2585;48.696;10.066;2022-07-29T09:19:23;7.10;;;5.40;;
5133;SDS011;2585;48.696;10.066;2022-07-29T09:21:51;6.03;;;5.40;;
5133;SDS011;2585;48.696;10.066;2022-07-29T09:24:26;7.07;;;6.23;;
5133;SDS011;2585;48.696;10.066;2022-07-29T09:29:57;8.70;;;6.27;;
5133;SDS011;2585;48.696;10.066;2022-07-29T09:32:25;6.67;;;5.90;;
5133;SDS011;2585;48.696;10.066;2022-07-29T09:37:47;8.27;;;5.23;;
5133;SDS011;2585;48.696;10.066;2022-07-29T09:40:18;10.70;;;7.43;;
5133;SDS011;2585;48.696;10.066;2022-07-29T09:42:49;6.53;;;5.77;;
5133;SDS011;2585;48.696;10.066;2022-07-29T09:45:30;6.53;;;4.97;;
5133;SDS011;2585;48.696;10.066;2022-07-29T09:48:13;8.13;;;4.70;;
5133;SDS011;2585;48.696;10.066;2022-07-29T09:50:51;6.20;;;5.00;;
5133;SDS011;2585;48.696;10.066;2022-07-29T09:55:58;7.40;;;4.13;;
5133;SDS011;2585;48.696;10.066;2022-07-29T09:58:25;10.70;;;4.77;;
5133;SDS011;2585;48.696;10.066;2022-07-29T10:00:53;11.07;;;5.10;;
5133;SDS011;2585;48.696;10.066;2022-07-29T10:03:21;5.50;;;4.70;;
5133;SDS011;2585;48.696;10.066;2022-07-29T10:06:08;5.57;;;4.93;;
5133;SDS011;2585;48.696;10.066;2022-07-29T10:08:36;4.90;;;4.30;;
5133;SDS011;2585;48.696;10.066;2022-07-29T10:11:14;4.90;;;4.40;;
5133;SDS011;2585;48.696;10.066;2022-07-29T10:13:43;6.60;;;4.20;;
5133;SDS011;2585;48.696;10.066;2022-07-29T10:16:11;5.10;;;4.50;;
5133;SDS011;2585;48.696;10.066;2022-07-29T10:18:40;7.10;;;4.37;;
5133;SDS011;2585;48.696;10.066;2022-07-29T10:21:09;7.03;;;4.40;;
5133;SDS011;2585;48.696;10.066;2022-07-29T10:23:57;6.40;;;4.10;;
5133;SDS011;2585;48.696;10.066;2022-07-29T10:26:26;5.37;;;4.40;;
5133;SDS011;2585;48.696;10.066;2022-07-29T10:28:55;4.80;;;4.30;;
5133;SDS011;2585;48.696;10.066;2022-07-29T10:31:24;6.40;;;4.00;;
5133;SDS011;2585;48.696;10.066;2022-07-29T10:36:56;4.23;;;3.83;;
5133;SDS011;2585;48.696;10.066;2022-07-29T10:42:24;8.00;;;4.67;;
5133;SDS011;2585;48.696;10.066;2022-07-29T10:44:59;8.63;;;5.13;;
5133;SDS011;2585;48.696;10.066;2022-07-29T10:47:30;6.20;;;4.50;;
5133;SDS011;2585;48.696;10.066;2022-07-29T10:50:01;6.70;;;4.57;;
5133;SDS011;2585;48.696;10.066;2022-07-29T10:55:39;5.70;;;4.30;;
5133;SDS011;2585;48.696;10.066;2022-07-29T10:58:28;5.40;;;4.23;;
5133;SDS011;2585;48.696;10.066;2022-07-29T11:00:55;5.97;;;4.47;;
5133;SDS011;2585;48.696;10.066;2022-07-29T11:06:16;5.93;;;4.47;;
5133;SDS011;2585;48.696;10.066;2022-07-29T11:11:41;10.40;;;7.80;;
5133;SDS011;2585;48.696;10.066;2022-07-29T11:14:12;5.90;;;4.20;;
5133;SDS011;2585;48.696;10.066;2022-07-29T11:19:31;4.67;;;3.50;;
5133;SDS011;2585;48.696;10.066;2022-07-29T11:21:59;3.53;;;2.80;;
5133;SDS011;2585;48.696;10.066;2022-07-29T11:24:30;3.87;;;2.77;;
5133;SDS011;2585;48.696;10.066;2022-07-29T11:27:09;25.90;;;3.00;;
5133;SDS011;2585;48.696;10.066;2022-07-29T11:29:39;4.43;;;2.30;;
5133;SDS011;2585;48.696;10.066;2022-07-29T11:32:19;3.00;;;2.00;;
5133;SDS011;2585;48.696;10.066;2022-07-29T11:35:22;3.53;;;2.43;;
5133;SDS011;2585;48.696;10.066;2022-07-29T11:43:49;2.13;;;1.90;;
5133;SDS011;2585;48.696;10.066;2022-07-29T11:46:40;4.50;;;2.50;;
5133;SDS011;2585;48.696;10.066;2022-07-29T11:49:12;2.27;;;2.07;;
5133;SDS011;2585;48.696;10.066;2022-07-29T11:51:53;3.73;;;2.37;;
5133;SDS011;2585;48.696;10.066;2022-07-29T11:54:23;4.57;;;2.23;;
5133;SDS011;2585;48.696;10.066;2022-07-29T11:56:58;3.20;;;2.43;;
5133;SDS011;2585;48.696;10.066;2022-07-29T11:59:25;3.03;;;2.10;;
5133;SDS011;2585;48.696;10.066;2022-07-29T12:02:00;4.20;;;2.63;;
5133;SDS011;2585;48.696;10.066;2022-07-29T12:04:51;6.43;;;2.23;;
5133;SDS011;2585;48.696;10.066;2022-07-29T12:07:29;3.20;;;2.20;;
5133;SDS011;2585;48.696;10.066;2022-07-29T12:09:59;2.10;;;1.90;;
5133;SDS011;2585;48.696;10.066;2022-07-29T12:12:27;2.30;;;2.03;;
5133;SDS011;2585;48.696;10.066;2022-07-29T12:14:55;2.97;;;1.63;;
5133;SDS011;2585;48.696;10.066;2022-07-29T12:17:31;2.30;;;1.70;;
5133;SDS011;2585;48.696;10.066;2022-07-29T12:20:00;2.20;;;2.00;;
5133;SDS011;2585;48.696;10.066;2022-07-29T12:22:33;1.80;;;1.70;;
5133;SDS011;2585;48.696;10.066;2022-07-29T12:25:04;2.10;;;1.90;;
5133;SDS011;2585;48.696;10.066;2022-07-29T12:28:00;4.10;;;1.90;;
5133;SDS011;2585;48.696;10.066;2022-07-29T12:30:40;7.60;;;2.70;;
5133;SDS011;2585;48.696;10.066;2022-07-29T12:35:41;5.93;;;2.97;;
5133;SDS011;2585;48.696;10.066;2022-07-29T12:38:19;4.07;;;2.90;;
5133;SDS011;2585;48.696;10.066;2022-07-29T12:40:47;2.93;;;2.50;;
5133;SDS011;2585;48.696;10.066;2022-07-29T12:43:17;5.47;;;2.90;;
5133;SDS011;2585;48.696;10.066;2022-07-29T12:45:46;5.80;;;3.03;;
5133;SDS011;2585;48.696;10.066;2022-07-29T12:48:14;6.63;;;3.70;;
5133;SDS011;2585;48.696;10.066;2022-07-29T12:50:55;4.80;;;3.07;;
5133;SDS011;2585;48.696;10.066;2022-07-29T12:53:24;9.63;;;4.03;;
5133;SDS011;2585;48.696;10.066;2022-07-29T12:55:53;3.50;;;3.20;;
5133;SDS011;2585;48.696;10.066;2022-07-29T12:58:28;3.73;;;2.70;;
5133;SDS011;2585;48.696;10.066;2022-07-29T13:01:05;6.60;;;3.33;;
5133;SDS011;2585;48.696;10.066;2022-07-29T13:03:46;4.43;;;3.10;;
5133;SDS011;2585;48.696;10.066;2022-07-29T13:09:04;6.47;;;3.70;;
5133;SDS011;2585;48.696;10.066;2022-07-29T13:11:37;5.63;;;3.80;;
5133;SDS011;2585;48.696;10.066;2022-07-29T13:14:16;3.50;;;3.20;;
5133;SDS011;2585;48.696;10.066;2022-07-29T13:17:04;5.07;;;3.70;;
5133;SDS011;2585;48.696;10.066;2022-07-29T13:19:39;4.17;;;3.20;;
5133;SDS011;2585;48.696;10.066;2022-07-29T13:22:10;3.83;;;3.10;;
5133;SDS011;2585;48.696;10.066;2022-07-29T13:24:46;9.70;;;4.20;;
5133;SDS011;2585;48.696;10.066;2022-07-29T13:27:14;4.70;;;4.00;;
5133;SDS011;2585;48.696;10.066;2022-07-29T13:29:41;9.07;;;4.13;;
5133;SDS011;2585;48.696;10.066;2022-07-29T13:32:08;3.40;;;3.10;;
5133;SDS011;2585;48.696;10.066;2022-07-29T13:34:35;6.40;;;3.60;;
5133;SDS011;2585;48.696;10.066;2022-07-29T13:37:02;4.50;;;3.53;;
5133;SDS011;2585;48.696;10.066;2022-07-29T13:39:29;4.77;;;3.60;;
5133;SDS011;2585;48.696;10.066;2022-07-29T13:41:56;7.33;;;4.30;;
5133;SDS011;2585;48.696;10.066;2022-07-29T13:44:25;10.00;;;4.47;;
5133;SDS011;2585;48.696;10.066;2022-07-29T13:46:52;6.53;;;3.80;;
5133;SDS011;2585;48.696;10.066;2022-07-29T13:49:19;7.80;;;4.60;;
5133;SDS011;2585;48.696;10.066;2022-07-29T13:51:46;10.47;;;4.70;;
5133;SDS011;2585;48.696;10.066;2022-07-29T13:54:12;6.20;;;4.83;;
5133;SDS011;2585;48.696;10.066;2022-07-29T13:56:39;7.00;;;5.10;;
5133;SDS011;2585;48.696;10.066;2022-07-29T13:59:06;6.80;;;4.53;;
5133;SDS011;2585;48.696;10.066;2022-07-29T14:01:34;8.13;;;4.47;;
5133;SDS011;2585;48.696;10.066;2022-07-29T14:04:01;7.70;;;5.30;;
5133;SDS011;2585;48.696;10.066;2022-07-29T14:06:28;9.07;;;4.80;;
5133;SDS011;2585;48.696;10.066;2022-07-29T14:08:55;8.17;;;4.90;;
5133;SDS011;2585;48.696;10.066;2022-07-29T14:11:22;6.40;;;5.27;;
5133;SDS011;2585;48.696;10.066;2022-07-29T14:13:49;6.37;;;4.60;;
5133;SDS011;2585;48.696;10.066;2022-07-29T14:16:16;6.57;;;4.63;;
5133;SDS011;2585;48.696;10.066;2022-07-29T14:18:42;6.90;;;4.47;;
5133;SDS011;2585;48.696;10.066;2022-07-29T14:21:09;7.00;;;5.10;;
5133;SDS011;2585;48.696;10.066;2022-07-29T14:23:36;5.33;;;4.83;;
5133;SDS011;2585;48.696;10.066;2022-07-29T14:26:07;7.77;;;4.70;;
5133;SDS011;2585;48.696;10.066;2022-07-29T14:28:40;7.70;;;4.80;;
5133;SDS011;2585;48.696;10.066;2022-07-29T14:31:07;5.70;;;5.10;;
5133;SDS011;2585;48.696;10.066;2022-07-29T14:33:34;9.97;;;5.83;;
5133;SDS011;2585;48.696;10.066;2022-07-29T14:36:02;5.43;;;4.93;;
5133;SDS011;2585;48.696;10.066;2022-07-29T14:38:29;8.30;;;6.10;;
5133;SDS011;2585;48.696;10.066;2022-07-29T14:40:55;7.83;;;5.90;;
5133;SDS011;2585;48.696;10.066;2022-07-29T14:43:22;6.43;;;5.83;;
5133;SDS011;2585;48.696;10.066;2022-07-29T14:45:49;7.20;;;6.13;;
5133;SDS011;2585;48.696;10.066;2022-07-29T14:48:16;7.10;;;5.63;;
5133;SDS011;2585;48.696;10.066;2022-07-29T14:50:43;6.90;;;5.50;;
5133;SDS011;2585;48.696;10.066;2022-07-29T14:53:10;7.27;;;5.67;;
5133;SDS011;2585;48.696;10.066;2022-07-29T14:55:39;7.70;;;5.70;;
5133;SDS011;2585;48.696;10.066;2022-07-29T14:58:07;7.33;;;5.90;;
5133;SDS011;2585;48.696;10.066;2022-07-29T15:00:41;8.93;;;5.97;;
5133;SDS011;2585;48.696;10.066;2022-07-29T15:03:08;7.93;;;6.27;;
5133;SDS011;2585;48.696;10.066;2022-07-29T15:05:49;7.23;;;6.17;;
5133;SDS011;2585;48.696;10.066;2022-07-29T15:08:16;8.33;;;6.37;;
5133;SDS011;2585;48.696;10.066;2022-07-29T15:10:43;10.20;;;6.50;;
5133;SDS011;2585;48.696;10.066;2022-07-29T15:13:09;7.00;;;6.30;;
5133;SDS011;2585;48.696;10.066;2022-07-29T15:15:36;9.27;;;6.90;;
5133;SDS011;2585;48.696;10.066;2022-07-29T15:18:04;10.43;;;7.10;;
5133;SDS011;2585;48.696;10.066;2022-07-29T15:20:31;8.77;;;6.57;;
5133;SDS011;2585;48.696;10.066;2022-07-29T15:22:58;9.57;;;6.70;;
5133;SDS011;2585;48.696;10.066;2022-07-29T15:25:25;8.97;;;8.07;;
5133;SDS011;2585;48.696;10.066;2022-07-29T15:27:53;8.00;;;6.50;;
5133;SDS011;2585;48.696;10.066;2022-07-29T15:30:26;7.40;;;6.67;;
5133;SDS011;2585;48.696;10.066;2022-07-29T15:32:59;7.30;;;6.60;;
5133;SDS011;2585;48.696;10.066;2022-07-29T15:35:27;9.00;;;6.03;;
5133;SDS011;2585;48.696;10.066;2022-07-29T15:37:54;7.80;;;6.07;;
5133;SDS011;2585;48.696;10.066;2022-07-29T15:40:21;7.53;;;6.80;;
5133;SDS011;2585;48.696;10.066;2022-07-29T15:42:48;8.20;;;6.40;;
5133;SDS011;2585;48.696;10.066;2022-07-29T15:45:14;6.97;;;6.27;;
5133;SDS011;2585;48.696;10.066;2022-07-29T15:47:42;8.60;;;6.73;;
5133;SDS011;2585;48.696;10.066;2022-07-29T15:50:09;10.80;;;8.13;;
5133;SDS011;2585;48.696;10.066;2022-07-29T15:52:43;8.63;;;7.50;;
5133;SDS011;2585;48.696;10.066;2022-07-29T15:55:10;8.53;;;6.90;;
5133;SDS011;2585;48.696;10.066;2022-07-29T15:57:37;9.53;;;7.10;;
5133;SDS011;2585;48.696;10.066;2022-07-29T16:00:06;8.73;;;6.90;;
5133;SDS011;2585;48.696;10.066;2022-07-29T16:02:34;7.80;;;7.10;;